createdAt,value
2023-05-05T00:00:57.866Z,14.30
2023-05-05T00:03:25.076Z,14.30
2023-05-05T00:05:52.761Z,14.40
2023-05-05T00:08:19.393Z,14.20
2023-05-05T00:10:46.376Z,14.30
2023-05-05T00:13:13.735Z,14.10
2023-05-05T00:15:43.833Z,14.10
2023-05-05T00:18:10.880Z,14.10
2023-05-05T00:20:37.605Z,14.00
2023-05-05T00:23:04.428Z,14.10
2023-05-05T00:25:31.136Z,14.10
2023-05-05T00:27:57.756Z,14.10
2023-05-05T00:30:24.554Z,14.10
2023-05-05T00:32:51.363Z,14.00
2023-05-05T00:35:18.057Z,14.00
2023-05-05T00:37:44.789Z,14.00
2023-05-05T00:40:11.635Z,13.90
2023-05-05T00:42:39.675Z,14.00
2023-05-05T00:45:06.403Z,14.10
2023-05-05T00:47:33.055Z,14.20
2023-05-05T00:49:59.731Z,14.10
2023-05-05T00:52:26.869Z,14.00
2023-05-05T00:55:01.076Z,14.10
2023-05-05T00:57:28.575Z,13.90
2023-05-05T00:59:55.732Z,14.00
2023-05-05T01:02:22.818Z,14.10
2023-05-05T01:04:49.413Z,13.90
2023-05-05T01:07:31.044Z,13.90
2023-05-05T01:10:18.129Z,13.80
2023-05-05T01:12:48.854Z,13.90
2023-05-05T01:15:22.507Z,13.90
2023-05-05T01:18:09.760Z,13.90
2023-05-05T01:20:46.307Z,13.90
2023-05-05T01:23:16.864Z,13.90
2023-05-05T01:26:00.592Z,13.80
2023-05-05T01:28:33.286Z,13.80
2023-05-05T01:31:09.151Z,13.80
2023-05-05T01:33:37.766Z,13.70
2023-05-05T01:36:07.680Z,13.80
2023-05-05T01:38:38.046Z,13.70
2023-05-05T01:41:09.085Z,13.70
2023-05-05T01:43:35.807Z,13.70
2023-05-05T01:46:03.038Z,13.70
2023-05-05T01:48:30.851Z,13.80
2023-05-05T01:50:57.468Z,13.70
2023-05-05T01:53:24.532Z,13.70
2023-05-05T01:55:52.159Z,13.70
2023-05-05T01:58:21.318Z,13.50
2023-05-05T02:00:48.953Z,13.50
2023-05-05T02:03:15.935Z,13.50
2023-05-05T02:05:43.101Z,13.40
2023-05-05T02:08:10.856Z,13.40
2023-05-05T02:10:40.831Z,13.40
2023-05-05T02:13:08.218Z,13.30
2023-05-05T02:15:35.716Z,13.30
2023-05-05T02:18:03.283Z,13.30
2023-05-05T02:20:31.002Z,13.10
2023-05-05T02:22:58.415Z,13.20
2023-05-05T02:25:27.839Z,13.30
2023-05-05T02:27:55.522Z,13.30
2023-05-05T02:30:22.459Z,13.40
2023-05-05T02:32:52.123Z,13.40
2023-05-05T02:35:22.910Z,13.30
2023-05-05T02:37:59.525Z,13.30
2023-05-05T02:40:28.496Z,13.20
2023-05-05T02:42:56.297Z,13.20
2023-05-05T02:45:23.330Z,13.20
2023-05-05T02:47:49.961Z,13.10
2023-05-05T02:50:16.929Z,13.10
2023-05-05T02:52:43.806Z,13.10
2023-05-05T02:55:10.965Z,13.00
2023-05-05T02:57:42.503Z,13.10
2023-05-05T03:00:14.894Z,13.10
2023-05-05T03:02:46.587Z,13.10
2023-05-05T03:05:17.316Z,13.10
2023-05-05T03:08:04.625Z,13.10
2023-05-05T03:10:34.798Z,12.90
2023-05-05T03:13:02.651Z,12.90
2023-05-05T03:15:34.448Z,12.90
2023-05-05T03:18:02.176Z,12.90
2023-05-05T03:20:28.979Z,12.90
2023-05-05T03:22:55.762Z,12.90
2023-05-05T03:25:41.023Z,12.90
2023-05-05T03:28:07.647Z,12.80
2023-05-05T03:30:34.268Z,12.80
2023-05-05T03:33:00.972Z,12.80
2023-05-05T03:35:27.929Z,12.80
2023-05-05T03:37:55.625Z,12.80
2023-05-05T03:40:32.649Z,12.80
2023-05-05T03:43:07.999Z,12.80
2023-05-05T03:45:34.656Z,12.90
2023-05-05T03:48:01.678Z,12.80
2023-05-05T03:50:28.315Z,12.80
2023-05-05T03:52:54.974Z,12.80
2023-05-05T03:55:21.571Z,12.80
2023-05-05T03:57:48.220Z,12.90
2023-05-05T04:00:15.180Z,12.90
2023-05-05T04:02:42.082Z,12.80
2023-05-05T04:05:08.985Z,12.80
2023-05-05T04:07:35.575Z,12.80
2023-05-05T04:10:02.225Z,12.60
2023-05-05T04:12:28.825Z,12.70
2023-05-05T04:14:55.425Z,12.70
2023-05-05T04:17:21.987Z,12.70
2023-05-05T04:19:48.680Z,12.50
2023-05-05T04:22:15.267Z,12.60
2023-05-05T04:24:41.957Z,12.60
2023-05-05T04:27:08.545Z,12.60
2023-05-05T04:29:35.220Z,12.70
2023-05-05T04:32:01.853Z,12.40
2023-05-05T04:34:28.477Z,12.40
2023-05-05T04:36:55.041Z,12.50
2023-05-05T04:39:21.879Z,12.40
2023-05-05T04:41:48.560Z,12.50
2023-05-05T04:44:15.497Z,12.60
2023-05-05T04:46:42.142Z,12.60
2023-05-05T04:49:09.192Z,12.60
2023-05-05T04:51:35.784Z,12.50
2023-05-05T04:54:02.407Z,12.60
2023-05-05T04:56:32.053Z,12.40
2023-05-05T04:58:58.650Z,12.40
2023-05-05T05:01:25.414Z,12.40
2023-05-05T05:03:53.060Z,12.50
2023-05-05T05:06:19.777Z,12.60
2023-05-05T05:08:46.379Z,12.60
2023-05-05T05:11:12.977Z,12.70
2023-05-05T05:13:39.610Z,12.60
2023-05-05T05:16:06.515Z,12.70
2023-05-05T05:18:33.115Z,12.70
2023-05-05T05:20:59.725Z,12.90
2023-05-05T05:23:26.334Z,13.00
2023-05-05T05:25:52.963Z,13.00
2023-05-05T05:28:19.527Z,13.00
2023-05-05T05:30:46.156Z,12.90
2023-05-05T05:33:12.822Z,13.00
2023-05-05T05:35:39.553Z,12.90
2023-05-05T05:38:06.285Z,12.90
2023-05-05T05:40:32.896Z,12.90
2023-05-05T05:42:59.564Z,13.10
2023-05-05T05:45:26.304Z,13.00
2023-05-05T05:47:52.985Z,13.20
2023-05-05T05:50:19.628Z,13.30
2023-05-05T05:52:46.301Z,13.30
2023-05-05T05:55:12.907Z,13.20
2023-05-05T05:57:39.522Z,13.10
2023-05-05T06:00:06.754Z,13.10
2023-05-05T06:02:33.916Z,13.30
2023-05-05T06:05:00.688Z,13.50
2023-05-05T06:07:27.371Z,13.80
2023-05-05T06:09:53.996Z,13.90
2023-05-05T06:12:20.957Z,13.90
2023-05-05T06:14:47.589Z,13.90
2023-05-05T06:17:14.206Z,13.80
2023-05-05T06:19:41.066Z,14.00
2023-05-05T06:22:07.698Z,14.10
2023-05-05T06:24:34.303Z,14.20
2023-05-05T06:27:02.274Z,14.10
2023-05-05T06:29:28.942Z,14.40
2023-05-05T06:31:55.727Z,14.50
2023-05-05T06:34:22.364Z,14.60
2023-05-05T06:36:48.998Z,14.80
2023-05-05T06:39:16.192Z,15.10
2023-05-05T06:41:42.959Z,15.60
2023-05-05T06:44:11.260Z,15.70
2023-05-05T06:46:38.043Z,15.80
2023-05-05T06:49:04.658Z,15.80
2023-05-05T06:51:31.677Z,15.90
2023-05-05T06:53:58.353Z,16.10
2023-05-05T06:56:25.137Z,16.50
2023-05-05T06:58:51.766Z,16.70
2023-05-05T07:01:18.391Z,17.00
2023-05-05T07:03:45.082Z,16.90
2023-05-05T07:06:11.829Z,16.70
2023-05-05T07:08:38.428Z,16.60
2023-05-05T07:11:05.045Z,16.40
2023-05-05T07:13:31.695Z,16.10
2023-05-05T07:15:58.450Z,15.90
2023-05-05T07:18:25.102Z,15.80
2023-05-05T07:20:51.757Z,15.80
2023-05-05T07:23:18.439Z,15.90
2023-05-05T07:25:45.190Z,16.10
2023-05-05T07:28:11.789Z,16.50
2023-05-05T07:30:38.410Z,17.20
2023-05-05T07:33:05.165Z,17.50
2023-05-05T07:35:31.828Z,17.20
2023-05-05T07:37:58.440Z,16.90
2023-05-05T07:40:25.917Z,17.00
2023-05-05T07:42:54.706Z,17.30
2023-05-05T07:45:21.472Z,17.50
2023-05-05T07:47:48.173Z,17.60
2023-05-05T07:50:15.304Z,17.70
2023-05-05T07:52:46.471Z,17.80
2023-05-05T07:55:16.451Z,17.80
2023-05-05T07:57:43.094Z,17.90
2023-05-05T08:00:10.264Z,17.60
2023-05-05T08:02:37.193Z,17.50
2023-05-05T08:05:04.493Z,17.40
2023-05-05T08:07:31.141Z,17.40
2023-05-05T08:09:57.772Z,17.40
2023-05-05T08:12:24.948Z,17.30
2023-05-05T08:14:51.495Z,17.30
2023-05-05T08:17:18.400Z,17.30
2023-05-05T08:19:44.971Z,17.20
2023-05-05T08:22:11.600Z,17.30
2023-05-05T08:24:38.197Z,17.50
2023-05-05T08:27:04.823Z,17.30
2023-05-05T08:29:31.425Z,17.20
2023-05-05T08:31:58.182Z,17.30
2023-05-05T08:34:24.807Z,17.50
2023-05-05T08:36:51.472Z,17.80
2023-05-05T08:39:18.095Z,18.10
2023-05-05T08:41:44.721Z,18.30
2023-05-05T08:44:11.769Z,18.50
2023-05-05T08:46:38.849Z,18.70
2023-05-05T08:49:05.685Z,18.70
2023-05-05T08:51:37.612Z,18.70
2023-05-05T08:54:05.754Z,19.00
2023-05-05T08:56:33.447Z,19.10
2023-05-05T08:59:01.580Z,19.40
2023-05-05T09:01:28.640Z,19.60
2023-05-05T09:03:55.321Z,19.80
2023-05-05T09:06:23.347Z,19.90
2023-05-05T09:08:50.521Z,20.10
2023-05-05T09:11:17.085Z,20.30
2023-05-05T09:13:43.932Z,20.40
2023-05-05T09:16:10.550Z,20.50
2023-05-05T09:18:37.398Z,20.40
2023-05-05T09:21:18.630Z,20.30
2023-05-05T09:24:08.083Z,20.20
2023-05-05T09:26:39.512Z,20.20
2023-05-05T09:29:06.230Z,20.30
2023-05-05T09:31:36.385Z,20.40
2023-05-05T09:34:16.567Z,20.50
2023-05-05T09:36:47.948Z,20.70
2023-05-05T09:39:17.397Z,20.80
2023-05-05T09:41:44.324Z,20.70
2023-05-05T09:44:12.222Z,21.00
2023-05-05T09:46:39.180Z,21.40
2023-05-05T09:49:26.965Z,21.70
2023-05-05T09:51:54.214Z,21.80
2023-05-05T09:54:30.537Z,21.60
2023-05-05T09:56:57.517Z,21.80
2023-05-05T09:59:24.436Z,22.30
2023-05-05T10:01:51.385Z,23.60
2023-05-05T10:04:28.315Z,23.40
2023-05-05T10:06:55.774Z,23.50
2023-05-05T10:09:23.128Z,23.40
2023-05-05T10:11:50.069Z,23.30
2023-05-05T10:14:17.912Z,23.00
2023-05-05T10:16:47.527Z,22.80
2023-05-05T10:19:15.010Z,23.00
2023-05-05T10:21:46.366Z,23.10
2023-05-05T10:24:27.827Z,23.40
2023-05-05T10:26:56.337Z,23.70
2023-05-05T10:29:36.677Z,24.40
2023-05-05T10:32:40.633Z,24.80
2023-05-05T10:35:02.987Z,25.00
2023-05-05T10:37:29.939Z,24.80
2023-05-05T10:39:59.716Z,24.40
2023-05-05T10:42:27.716Z,24.80
2023-05-05T10:44:54.618Z,24.90
2023-05-05T10:47:22.338Z,24.70
2023-05-05T10:50:27.429Z,24.90
2023-05-05T10:52:58.413Z,25.30
2023-05-05T10:55:36.805Z,26.00
2023-05-05T10:58:05.367Z,26.40
2023-05-05T11:00:37.785Z,26.20
2023-05-05T11:03:16.701Z,26.10
2023-05-05T11:06:01.683Z,25.90
2023-05-05T11:08:28.319Z,26.40
2023-05-05T11:10:54.929Z,27.00
2023-05-05T11:13:21.752Z,27.00
2023-05-05T11:15:51.233Z,26.90
2023-05-05T11:18:31.166Z,27.40
2023-05-05T11:20:57.774Z,27.30
2023-05-05T11:23:24.883Z,26.90
2023-05-05T11:25:52.040Z,26.90
2023-05-05T11:28:19.944Z,27.20
2023-05-05T11:30:59.171Z,27.30
2023-05-05T11:33:30.131Z,27.90
2023-05-05T11:35:57.742Z,27.40
2023-05-05T11:38:50.789Z,27.30
2023-05-05T11:41:26.713Z,27.20
2023-05-05T11:44:17.196Z,27.30
2023-05-05T11:46:52.810Z,26.90
2023-05-05T11:49:29.245Z,26.70
2023-05-05T11:51:59.719Z,26.80
2023-05-05T11:54:26.944Z,26.60
2023-05-05T11:56:54.280Z,26.50
2023-05-05T11:59:20.970Z,25.80
2023-05-05T12:01:47.678Z,25.90
2023-05-05T12:04:14.789Z,26.00
2023-05-05T12:06:42.015Z,26.40
2023-05-05T12:09:19.036Z,26.30
2023-05-05T12:11:55.570Z,25.90
2023-05-05T12:14:22.647Z,25.30
2023-05-05T12:17:04.099Z,25.60
2023-05-05T12:19:33.303Z,25.80
2023-05-05T12:22:03.979Z,25.90
2023-05-05T12:24:30.744Z,26.10
2023-05-05T12:27:10.607Z,26.40
2023-05-05T12:29:37.388Z,26.70
2023-05-05T12:32:04.399Z,26.50
2023-05-05T12:34:31.428Z,26.60
2023-05-05T12:36:58.113Z,26.40
2023-05-05T12:39:34.180Z,26.20
2023-05-05T12:42:04.440Z,26.20
2023-05-05T12:44:40.306Z,25.90
2023-05-05T12:47:07.212Z,25.80
2023-05-05T12:49:45.873Z,25.80
2023-05-05T12:52:12.669Z,25.60
2023-05-05T12:54:52.374Z,25.90
2023-05-05T12:57:20.150Z,25.80
2023-05-05T12:59:46.729Z,25.40
2023-05-05T13:02:13.438Z,25.20
2023-05-05T13:04:49.126Z,25.40
2023-05-05T13:07:16.738Z,25.50
2023-05-05T13:09:43.359Z,25.80
2023-05-05T13:12:11.953Z,25.90
2023-05-05T13:14:39.101Z,25.60
2023-05-05T13:17:05.772Z,25.50
2023-05-05T13:19:32.445Z,25.20
2023-05-05T13:21:59.119Z,25.20
2023-05-05T13:24:38.075Z,25.40
2023-05-05T13:27:09.348Z,25.50
2023-05-05T13:29:36.030Z,25.20
2023-05-05T13:32:02.922Z,25.10
2023-05-05T13:34:29.676Z,24.80
2023-05-05T13:36:56.311Z,24.70
2023-05-05T13:39:22.923Z,24.80
2023-05-05T13:41:49.609Z,24.80
2023-05-05T13:44:16.318Z,24.70
2023-05-05T13:46:43.072Z,24.70
2023-05-05T13:49:09.827Z,24.50
2023-05-05T13:51:38.133Z,24.30
2023-05-05T13:54:05.335Z,24.20
2023-05-05T13:56:32.641Z,24.10
2023-05-05T13:58:59.483Z,24.10
2023-05-05T14:01:26.144Z,23.90
2023-05-05T14:03:53.307Z,24.00
2023-05-05T14:06:21.071Z,24.00
2023-05-05T14:08:47.890Z,23.90
2023-05-05T14:11:17.010Z,24.00
2023-05-05T14:13:44.664Z,24.00
2023-05-05T14:16:11.316Z,24.20
2023-05-05T14:18:38.013Z,24.30
2023-05-05T14:21:04.593Z,24.00
2023-05-05T14:23:31.850Z,24.00
2023-05-05T14:25:58.503Z,23.90
2023-05-05T14:28:25.152Z,24.00
2023-05-05T14:30:52.029Z,24.00
2023-05-05T14:33:18.618Z,23.80
2023-05-05T14:35:45.226Z,23.80
2023-05-05T14:38:11.927Z,24.00
2023-05-05T14:40:38.529Z,24.00
2023-05-05T14:43:05.170Z,24.20
2023-05-05T14:45:31.907Z,24.10
2023-05-05T14:47:58.538Z,24.20
2023-05-05T14:50:25.252Z,24.10
2023-05-05T14:52:51.832Z,24.10
2023-05-05T14:55:18.486Z,24.10
2023-05-05T14:57:45.051Z,24.20
2023-05-05T15:00:11.930Z,24.40
2023-05-05T15:02:38.670Z,24.40
2023-05-05T15:05:05.475Z,24.20
2023-05-05T15:07:32.137Z,23.90
2023-05-05T15:09:58.741Z,23.90
2023-05-05T15:12:25.993Z,24.10
2023-05-05T15:14:52.795Z,23.90
2023-05-05T15:17:19.561Z,24.20
2023-05-05T15:19:46.201Z,24.70
2023-05-05T15:22:12.833Z,24.80
2023-05-05T15:24:39.452Z,24.70
2023-05-05T15:27:06.159Z,24.90
2023-05-05T15:29:32.858Z,24.60
2023-05-05T15:31:59.519Z,24.60
2023-05-05T15:34:26.670Z,24.50
2023-05-05T15:36:53.307Z,24.70
2023-05-05T15:39:20.032Z,24.60
2023-05-05T15:41:46.653Z,24.20
2023-05-05T15:44:13.381Z,23.80
2023-05-05T15:46:40.812Z,23.60
2023-05-05T15:49:07.443Z,23.30
2023-05-05T15:51:34.003Z,22.90
2023-05-05T15:54:00.653Z,22.50
2023-05-05T15:56:27.529Z,22.50
2023-05-05T15:58:54.333Z,22.40
2023-05-05T16:01:21.112Z,22.20
2023-05-05T16:03:47.796Z,22.20
2023-05-05T16:06:14.407Z,21.90
2023-05-05T16:08:41.125Z,21.80
2023-05-05T16:11:07.740Z,21.60
2023-05-05T16:13:34.406Z,21.80
2023-05-05T16:16:01.383Z,21.30
2023-05-05T16:18:27.975Z,21.00
2023-05-05T16:20:54.546Z,21.00
2023-05-05T16:23:21.160Z,20.90
2023-05-05T16:25:47.731Z,20.80
2023-05-05T16:28:14.421Z,20.80
2023-05-05T16:30:42.753Z,20.80
2023-05-05T16:33:09.686Z,20.90
2023-05-05T16:35:39.157Z,20.70
2023-05-05T16:38:05.818Z,20.70
2023-05-05T16:40:32.407Z,20.60
2023-05-05T16:42:58.984Z,20.50
2023-05-05T16:45:25.622Z,20.40
2023-05-05T16:47:52.249Z,20.20
2023-05-05T16:50:18.969Z,20.10
2023-05-05T16:52:45.924Z,20.10
2023-05-05T16:55:12.619Z,20.00
2023-05-05T16:57:39.224Z,20.10
2023-05-05T17:00:06.384Z,19.90
2023-05-05T17:02:33.192Z,19.90
2023-05-05T17:04:59.804Z,19.90
2023-05-05T17:07:26.501Z,19.90
2023-05-05T17:09:53.160Z,19.70
2023-05-05T17:12:19.728Z,19.70
2023-05-05T17:14:46.363Z,19.70
2023-05-05T17:17:13.146Z,19.70
2023-05-05T17:19:39.772Z,19.60
2023-05-05T17:22:06.470Z,19.50
2023-05-05T17:24:33.139Z,19.40
2023-05-05T17:26:59.756Z,19.30
2023-05-05T17:29:26.505Z,19.20
2023-05-05T17:31:54.125Z,19.30
2023-05-05T17:34:20.932Z,19.30
2023-05-05T17:36:47.547Z,19.30
2023-05-05T17:39:14.134Z,19.30
2023-05-05T17:41:42.375Z,19.20
2023-05-05T17:44:09.035Z,19.00
2023-05-05T17:46:36.224Z,19.00
2023-05-05T17:49:02.891Z,18.90
2023-05-05T17:51:29.601Z,18.90
2023-05-05T17:53:56.209Z,18.80
2023-05-05T17:56:23.030Z,18.80
2023-05-05T17:58:49.659Z,18.80
2023-05-05T18:01:22.762Z,18.70
2023-05-05T18:03:49.530Z,18.60
2023-05-05T18:06:16.282Z,18.60
2023-05-05T18:08:43.023Z,18.50
2023-05-05T18:11:09.619Z,18.50
2023-05-05T18:13:36.597Z,18.50
2023-05-05T18:16:03.690Z,18.40
2023-05-05T18:18:30.344Z,18.50
2023-05-05T18:20:56.903Z,18.50
2023-05-05T18:23:23.536Z,18.30
2023-05-05T18:25:50.146Z,18.20
2023-05-05T18:28:16.910Z,18.20
2023-05-05T18:30:43.489Z,18.20
2023-05-05T18:33:10.184Z,18.20
2023-05-05T18:35:37.092Z,18.20
2023-05-05T18:38:03.919Z,18.10
2023-05-05T18:40:31.516Z,18.00
2023-05-05T18:42:58.133Z,18.10
2023-05-05T18:45:24.743Z,18.00
2023-05-05T18:47:51.408Z,18.00
2023-05-05T18:50:18.008Z,17.90
2023-05-05T18:52:44.603Z,17.70
2023-05-05T18:55:11.585Z,17.50
2023-05-05T18:57:38.491Z,17.60
2023-05-05T19:00:05.366Z,17.50
2023-05-05T19:02:32.014Z,17.50
2023-05-05T19:04:58.603Z,17.50
2023-05-05T19:07:35.032Z,17.50
2023-05-05T19:10:03.995Z,17.40
2023-05-05T19:12:30.658Z,17.40
2023-05-05T19:14:57.275Z,17.30
2023-05-05T19:17:23.965Z,17.20
2023-05-05T19:19:52.771Z,17.30
2023-05-05T19:22:20.583Z,17.30
2023-05-05T19:24:47.260Z,17.20
2023-05-05T19:27:17.113Z,17.30
2023-05-05T19:29:43.931Z,17.20
2023-05-05T19:32:10.768Z,17.10
2023-05-05T19:34:37.485Z,17.10
2023-05-05T19:37:04.120Z,17.10
2023-05-05T19:39:31.204Z,17.10
2023-05-05T19:41:57.826Z,17.00
2023-05-05T19:44:24.477Z,17.00
2023-05-05T19:46:52.335Z,17.00
2023-05-05T19:49:19.008Z,17.10
2023-05-05T19:51:47.541Z,17.00
2023-05-05T19:54:14.192Z,16.80
2023-05-05T19:56:40.801Z,16.70
2023-05-05T19:59:07.502Z,16.50
2023-05-05T20:01:34.902Z,16.70
2023-05-05T20:04:03.109Z,16.60
2023-05-05T20:06:29.750Z,16.50
2023-05-05T20:08:56.496Z,16.50
2023-05-05T20:11:23.153Z,16.60
2023-05-05T20:13:50.066Z,16.50
2023-05-05T20:16:16.845Z,16.60
2023-05-05T20:18:43.797Z,16.50
2023-05-05T20:21:10.543Z,16.60
2023-05-05T20:23:37.245Z,16.60
2023-05-05T20:26:03.956Z,16.60
2023-05-05T20:28:31.590Z,16.50
2023-05-05T20:30:58.383Z,16.40
2023-05-05T20:33:25.311Z,16.30
2023-05-05T20:35:51.933Z,16.20
2023-05-05T20:38:18.630Z,16.10
2023-05-05T20:40:45.648Z,16.10
2023-05-05T20:43:13.614Z,15.90
2023-05-05T20:45:40.269Z,16.10
2023-05-05T20:48:09.869Z,16.00
2023-05-05T20:50:39.875Z,16.00
2023-05-05T20:53:07.816Z,16.10
2023-05-05T20:55:34.653Z,16.10
2023-05-05T20:58:01.438Z,16.10
2023-05-05T21:00:30.833Z,14.80
2023-05-05T21:02:57.520Z,15.80
2023-05-05T21:05:24.232Z,15.70
2023-05-05T21:07:53.043Z,15.60
2023-05-05T21:10:19.694Z,15.60
2023-05-05T21:12:46.322Z,15.60
2023-05-05T21:15:12.897Z,15.70
2023-05-05T21:17:39.938Z,15.70
2023-05-05T21:20:06.975Z,15.70
2023-05-05T21:22:33.754Z,15.60
2023-05-05T21:25:14.073Z,15.40
2023-05-05T21:27:40.804Z,15.40
2023-05-05T21:30:10.602Z,15.50
2023-05-05T21:32:38.193Z,15.40
2023-05-05T21:35:05.943Z,15.40
2023-05-05T21:37:32.705Z,15.60
2023-05-05T21:39:59.267Z,15.70
2023-05-05T21:42:26.752Z,15.40
2023-05-05T21:44:53.393Z,15.30
2023-05-05T21:47:20.004Z,15.40
2023-05-05T21:49:46.695Z,15.50
2023-05-05T21:52:13.291Z,15.40
2023-05-05T21:54:40.699Z,15.30
2023-05-05T21:57:07.368Z,15.10
2023-05-05T21:59:34.241Z,15.20
2023-05-05T22:02:00.821Z,15.20
2023-05-05T22:04:27.400Z,15.30
2023-05-05T22:06:54.069Z,15.40
2023-05-05T22:09:20.906Z,15.40
2023-05-05T22:11:47.570Z,15.50
2023-05-05T22:14:15.333Z,15.50
2023-05-05T22:16:42.197Z,15.70
2023-05-05T22:19:08.940Z,15.80
2023-05-05T22:21:35.490Z,15.50
2023-05-05T22:24:02.190Z,15.40
2023-05-05T22:26:28.785Z,15.30
2023-05-05T22:28:55.428Z,15.30
2023-05-05T22:31:22.113Z,15.20
2023-05-05T22:33:48.705Z,15.40
2023-05-05T22:36:15.395Z,15.30
2023-05-05T22:38:42.181Z,15.20
2023-05-05T22:41:08.848Z,15.00
2023-05-05T22:43:35.749Z,14.90
2023-05-05T22:46:02.472Z,15.00
2023-05-05T22:48:29.053Z,14.90
2023-05-05T22:50:57.056Z,15.00
2023-05-05T22:53:23.725Z,15.20
2023-05-05T22:55:51.562Z,15.10
2023-05-05T22:58:18.344Z,14.90
2023-05-05T23:00:44.970Z,15.00
2023-05-05T23:03:11.899Z,14.80
2023-05-05T23:05:38.511Z,14.70
2023-05-05T23:08:05.129Z,14.80
2023-05-05T23:10:31.910Z,14.90
2023-05-05T23:12:58.521Z,14.90
2023-05-05T23:15:25.221Z,14.70
2023-05-05T23:17:51.912Z,14.80
2023-05-05T23:20:18.581Z,14.90
2023-05-05T23:22:45.188Z,15.00
2023-05-05T23:25:12.319Z,14.90
2023-05-05T23:27:40.010Z,14.80
2023-05-05T23:30:07.656Z,14.90
2023-05-05T23:32:34.291Z,14.80
2023-05-05T23:35:01.288Z,14.90
2023-05-05T23:37:27.915Z,15.00
2023-05-05T23:39:54.510Z,14.90
2023-05-05T23:42:21.133Z,14.90
2023-05-05T23:44:47.680Z,14.90
2023-05-05T23:47:14.263Z,14.80
2023-05-05T23:49:40.887Z,14.80
2023-05-05T23:52:07.622Z,14.90
2023-05-05T23:54:34.279Z,14.70
2023-05-05T23:57:00.871Z,14.60
2023-05-05T23:59:27.487Z,14.60
